Startpagina
METAR-TAF:

METAR-TAF

Vliegvelden :

Athene, Griekenland

Luchthaven Athene

breedte: 37-56N, lengte: 023-56E, hoogte: 94 m

Actueel weer

Dit bericht is 39 minuten geleden gemaakt, om 14:20 UTC
Wind 10 kt uit het oosten
Temperatuur 25°C
Vochtigheid 28%
Druk 1016 hPa
Zicht 10 km of meer
Weinig wolken op 3000 ft

METAR: LGAV 221420Z 09010KT 9999 FEW030 25/05 Q1016 NOSIG

Tijdstip: 17:59 (14:59 UTC)

Verwachting

Dit bericht is 3 uur en het 59 minuten geleden gemaakt, om 11:00 UTC
Verwachting geldig van 22 om 12 UTC tot 23 om 12 UTC
Wind 10 kt uit het oosten
Zicht 10 km of meer
Weinig wolken op 2000 ft
Wijzigt naar
van 22 om 16 UTC tot 22 om 18 UTC
Wind 3 kt uit variabele richting

TAF: LGAV 221100Z 2212/2312 09010KT 9999 FEW020 BECMG 2216/2218 VRB03KT

Waarnemingen en weersverwachtingen van meer dan 4000 vliegvelden (METAR en TAF).

De beschikbare stations zijn de gele en rode punten op de kaart.

Ga met uw muis naar het station om de naam te zien.

Klik dan om waarnemingen en weersverwachtingen te zien.

kaart wijzigen: klik op de groene knoppen met een zwart kruis om in te zoomen, op de groene knop met een streepje om uit te zoomen of op de groene pijlen voor aangrenzende kaarten.


METAR-TAF: